sensor_id;sensor_type;location;lat;lon;timestamp;temperature;humidity
4960;DHT22;2495;48.200;11.532;2022-07-17T00:05:00;22.50;44.70
4960;DHT22;2495;48.200;11.532;2022-07-17T00:10:02;22.50;44.30
4960;DHT22;2495;48.200;11.532;2022-07-17T00:15:03;22.40;44.50
4960;DHT22;2495;48.200;11.532;2022-07-17T00:20:05;22.20;45.00
4960;DHT22;2495;48.200;11.532;2022-07-17T00:25:06;22.10;45.20
4960;DHT22;2495;48.200;11.532;2022-07-17T00:30:08;21.90;45.80
4960;DHT22;2495;48.200;11.532;2022-07-17T00:35:10;22.00;45.60
4960;DHT22;2495;48.200;11.532;2022-07-17T00:40:12;21.90;46.40
4960;DHT22;2495;48.200;11.532;2022-07-17T00:45:12;21.80;46.10
4960;DHT22;2495;48.200;11.532;2022-07-17T00:50:13;21.70;47.00
4960;DHT22;2495;48.200;11.532;2022-07-17T00:55:15;21.80;47.10
4960;DHT22;2495;48.200;11.532;2022-07-17T01:00:16;21.70;47.70
4960;DHT22;2495;48.200;11.532;2022-07-17T01:05:18;21.50;48.00
4960;DHT22;2495;48.200;11.532;2022-07-17T01:10:19;21.40;48.30
4960;DHT22;2495;48.200;11.532;2022-07-17T01:15:20;21.40;48.60
4960;DHT22;2495;48.200;11.532;2022-07-17T01:20:21;21.50;48.70
4960;DHT22;2495;48.200;11.532;2022-07-17T01:25:23;21.60;48.20
4960;DHT22;2495;48.200;11.532;2022-07-17T01:30:24;21.40;48.70
4960;DHT22;2495;48.200;11.532;2022-07-17T01:35:25;21.50;48.30
4960;DHT22;2495;48.200;11.532;2022-07-17T01:40:27;21.40;48.90
4960;DHT22;2495;48.200;11.532;2022-07-17T01:45:28;21.40;48.90
4960;DHT22;2495;48.200;11.532;2022-07-17T01:50:29;21.40;48.50
4960;DHT22;2495;48.200;11.532;2022-07-17T01:55:30;21.30;49.00
4960;DHT22;2495;48.200;11.532;2022-07-17T02:00:32;21.20;48.80
4960;DHT22;2495;48.200;11.532;2022-07-17T02:05:33;21.10;48.90
4960;DHT22;2495;48.200;11.532;2022-07-17T02:10:34;20.90;49.10
4960;DHT22;2495;48.200;11.532;2022-07-17T02:15:36;20.70;49.80
4960;DHT22;2495;48.200;11.532;2022-07-17T02:20:37;20.80;50.00
4960;DHT22;2495;48.200;11.532;2022-07-17T02:25:38;20.80;49.90
4960;DHT22;2495;48.200;11.532;2022-07-17T02:30:40;20.80;49.50
4960;DHT22;2495;48.200;11.532;2022-07-17T02:35:41;20.60;49.50
4960;DHT22;2495;48.200;11.532;2022-07-17T02:40:42;20.50;49.80
4960;DHT22;2495;48.200;11.532;2022-07-17T02:45:44;20.40;50.00
4960;DHT22;2495;48.200;11.532;2022-07-17T02:50:45;20.20;50.20
4960;DHT22;2495;48.200;11.532;2022-07-17T02:55:46;20.10;51.00
4960;DHT22;2495;48.200;11.532;2022-07-17T03:00:47;20.30;50.60
4960;DHT22;2495;48.200;11.532;2022-07-17T03:05:49;20.30;51.20
4960;DHT22;2495;48.200;11.532;2022-07-17T03:10:50;20.40;51.30
4960;DHT22;2495;48.200;11.532;2022-07-17T03:15:51;20.40;50.70
4960;DHT22;2495;48.200;11.532;2022-07-17T03:20:53;20.30;50.80
4960;DHT22;2495;48.200;11.532;2022-07-17T03:25:54;20.10;51.00
4960;DHT22;2495;48.200;11.532;2022-07-17T03:30:55;20.00;51.20
4960;DHT22;2495;48.200;11.532;2022-07-17T03:35:56;19.80;51.40
4960;DHT22;2495;48.200;11.532;2022-07-17T03:40:58;19.70;51.40
4960;DHT22;2495;48.200;11.532;2022-07-17T03:45:59;19.70;51.90
4960;DHT22;2495;48.200;11.532;2022-07-17T03:51:00;19.60;51.90
4960;DHT22;2495;48.200;11.532;2022-07-17T03:56:02;19.60;52.70
4960;DHT22;2495;48.200;11.532;2022-07-17T04:01:03;19.60;52.20
4960;DHT22;2495;48.200;11.532;2022-07-17T04:06:05;19.60;52.20
4960;DHT22;2495;48.200;11.532;2022-07-17T04:11:06;19.50;52.40
4960;DHT22;2495;48.200;11.532;2022-07-17T04:16:07;19.40;52.90
4960;DHT22;2495;48.200;11.532;2022-07-17T04:21:09;19.30;53.30
4960;DHT22;2495;48.200;11.532;2022-07-17T04:26:10;19.40;53.50
4960;DHT22;2495;48.200;11.532;2022-07-17T04:31:11;19.40;53.80
4960;DHT22;2495;48.200;11.532;2022-07-17T04:36:12;19.40;54.10
4960;DHT22;2495;48.200;11.532;2022-07-17T04:41:13;19.60;54.70
4960;DHT22;2495;48.200;11.532;2022-07-17T04:46:14;19.90;54.60
4960;DHT22;2495;48.200;11.532;2022-07-17T04:51:16;20.10;53.50
4960;DHT22;2495;48.200;11.532;2022-07-17T04:56:17;20.10;53.10
4960;DHT22;2495;48.200;11.532;2022-07-17T05:01:18;20.10;52.60
4960;DHT22;2495;48.200;11.532;2022-07-17T05:06:19;20.20;52.20
4960;DHT22;2495;48.200;11.532;2022-07-17T05:11:21;20.50;52.40
4960;DHT22;2495;48.200;11.532;2022-07-17T05:16:22;21.00;51.70
4960;DHT22;2495;48.200;11.532;2022-07-17T05:21:23;21.10;50.40
4960;DHT22;2495;48.200;11.532;2022-07-17T05:26:24;21.20;49.90
4960;DHT22;2495;48.200;11.532;2022-07-17T05:31:26;21.40;50.10
4960;DHT22;2495;48.200;11.532;2022-07-17T05:36:27;21.50;49.00
4960;DHT22;2495;48.200;11.532;2022-07-17T05:41:28;21.60;48.50
4960;DHT22;2495;48.200;11.532;2022-07-17T05:46:29;21.60;48.00
4960;DHT22;2495;48.200;11.532;2022-07-17T05:51:31;21.60;47.70
4960;DHT22;2495;48.200;11.532;2022-07-17T05:56:32;22.00;48.00
4960;DHT22;2495;48.200;11.532;2022-07-17T06:01:33;22.20;47.20
4960;DHT22;2495;48.200;11.532;2022-07-17T06:06:34;22.30;46.60
4960;DHT22;2495;48.200;11.532;2022-07-17T06:11:36;22.40;46.20
4960;DHT22;2495;48.200;11.532;2022-07-17T06:16:37;22.80;46.10
4960;DHT22;2495;48.200;11.532;2022-07-17T06:21:38;23.30;45.70
4960;DHT22;2495;48.200;11.532;2022-07-17T06:26:40;23.50;45.50
4960;DHT22;2495;48.200;11.532;2022-07-17T06:31:41;23.40;44.30
4960;DHT22;2495;48.200;11.532;2022-07-17T06:36:42;23.50;44.20
4960;DHT22;2495;48.200;11.532;2022-07-17T06:41:43;23.70;43.90
4960;DHT22;2495;48.200;11.532;2022-07-17T06:46:45;24.10;44.00
4960;DHT22;2495;48.200;11.532;2022-07-17T06:51:46;24.30;43.10
4960;DHT22;2495;48.200;11.532;2022-07-17T06:56:48;24.50;43.50
4960;DHT22;2495;48.200;11.532;2022-07-17T07:01:49;25.10;42.70
4960;DHT22;2495;48.200;11.532;2022-07-17T07:06:50;25.40;41.60
4960;DHT22;2495;48.200;11.532;2022-07-17T07:11:52;25.70;40.70
4960;DHT22;2495;48.200;11.532;2022-07-17T07:16:53;26.40;40.60
4960;DHT22;2495;48.200;11.532;2022-07-17T07:21:54;27.10;39.90
4960;DHT22;2495;48.200;11.532;2022-07-17T07:26:56;27.80;38.60
4960;DHT22;2495;48.200;11.532;2022-07-17T07:31:57;28.00;37.10
4960;DHT22;2495;48.200;11.532;2022-07-17T07:36:59;28.30;36.20
4960;DHT22;2495;48.200;11.532;2022-07-17T07:42:03;28.70;36.20
4960;DHT22;2495;48.200;11.532;2022-07-17T07:47:03;29.50;35.80
4960;DHT22;2495;48.200;11.532;2022-07-17T07:52:04;29.90;34.40
4960;DHT22;2495;48.200;11.532;2022-07-17T07:57:05;30.30;33.40
4960;DHT22;2495;48.200;11.532;2022-07-17T08:02:07;30.70;32.90
4960;DHT22;2495;48.200;11.532;2022-07-17T08:07:08;31.00;32.20
4960;DHT22;2495;48.200;11.532;2022-07-17T08:12:10;31.20;31.30
4960;DHT22;2495;48.200;11.532;2022-07-17T08:17:11;31.80;31.60
4960;DHT22;2495;48.200;11.532;2022-07-17T08:22:12;31.90;30.00
4960;DHT22;2495;48.200;11.532;2022-07-17T08:27:14;32.10;29.50
4960;DHT22;2495;48.200;11.532;2022-07-17T08:32:15;32.30;29.00
4960;DHT22;2495;48.200;11.532;2022-07-17T08:37:16;32.80;28.70
4960;DHT22;2495;48.200;11.532;2022-07-17T08:42:17;33.10;28.40
4960;DHT22;2495;48.200;11.532;2022-07-17T08:47:19;33.20;28.40
4960;DHT22;2495;48.200;11.532;2022-07-17T08:52:20;33.60;27.70
4960;DHT22;2495;48.200;11.532;2022-07-17T08:57:21;33.60;27.60
4960;DHT22;2495;48.200;11.532;2022-07-17T09:02:23;33.70;28.10
4960;DHT22;2495;48.200;11.532;2022-07-17T09:07:24;34.00;27.30
4960;DHT22;2495;48.200;11.532;2022-07-17T09:12:26;34.70;27.40
4960;DHT22;2495;48.200;11.532;2022-07-17T09:17:26;35.10;27.20
4960;DHT22;2495;48.200;11.532;2022-07-17T09:22:28;35.60;26.40
4960;DHT22;2495;48.200;11.532;2022-07-17T09:27:30;35.60;26.10
4960;DHT22;2495;48.200;11.532;2022-07-17T09:32:33;36.10;25.80
4960;DHT22;2495;48.200;11.532;2022-07-17T09:37:32;35.90;25.50
4960;DHT22;2495;48.200;11.532;2022-07-17T09:42:33;36.10;25.50
4960;DHT22;2495;48.200;11.532;2022-07-17T09:47:38;36.40;24.90
4960;DHT22;2495;48.200;11.532;2022-07-17T09:52:39;36.50;25.20
4960;DHT22;2495;48.200;11.532;2022-07-17T09:57:41;37.00;24.60
4960;DHT22;2495;48.200;11.532;2022-07-17T10:02:42;37.30;24.20
4960;DHT22;2495;48.200;11.532;2022-07-17T10:07:46;37.50;23.90
4960;DHT22;2495;48.200;11.532;2022-07-17T10:12:48;38.00;23.90
4960;DHT22;2495;48.200;11.532;2022-07-17T10:17:49;38.30;23.50
4960;DHT22;2495;48.200;11.532;2022-07-17T10:22:56;38.00;23.30
4960;DHT22;2495;48.200;11.532;2022-07-17T10:27:57;38.10;23.50
4960;DHT22;2495;48.200;11.532;2022-07-17T10:33:00;38.20;23.00
4960;DHT22;2495;48.200;11.532;2022-07-17T10:38:10;38.50;23.50
4960;DHT22;2495;48.200;11.532;2022-07-17T10:43:11;39.20;23.40
4960;DHT22;2495;48.200;11.532;2022-07-17T10:48:19;39.40;22.60
4960;DHT22;2495;48.200;11.532;2022-07-17T10:53:28;39.90;22.70
4960;DHT22;2495;48.200;11.532;2022-07-17T10:58:38;39.80;22.40
4960;DHT22;2495;48.200;11.532;2022-07-17T11:03:42;39.20;22.10
4960;DHT22;2495;48.200;11.532;2022-07-17T11:08:53;38.30;22.50
4960;DHT22;2495;48.200;11.532;2022-07-17T11:13:53;37.20;22.90
4960;DHT22;2495;48.200;11.532;2022-07-17T11:18:54;36.20;23.50
4960;DHT22;2495;48.200;11.532;2022-07-17T11:23:56;34.90;24.60
4960;DHT22;2495;48.200;11.532;2022-07-17T11:29:06;34.80;24.30
4960;DHT22;2495;48.200;11.532;2022-07-17T11:34:14;34.90;24.20
4960;DHT22;2495;48.200;11.532;2022-07-17T11:39:16;34.80;24.30
4960;DHT22;2495;48.200;11.532;2022-07-17T11:44:20;34.50;24.50
4960;DHT22;2495;48.200;11.532;2022-07-17T11:49:25;34.50;24.20
4960;DHT22;2495;48.200;11.532;2022-07-17T11:54:31;34.40;24.40
4960;DHT22;2495;48.200;11.532;2022-07-17T11:59:32;34.30;24.40
4960;DHT22;2495;48.200;11.532;2022-07-17T12:04:34;35.10;23.50
4960;DHT22;2495;48.200;11.532;2022-07-17T12:09:42;36.80;22.60
4960;DHT22;2495;48.200;11.532;2022-07-17T12:14:46;37.50;22.20
4960;DHT22;2495;48.200;11.532;2022-07-17T12:19:47;36.60;22.60
4960;DHT22;2495;48.200;11.532;2022-07-17T12:24:48;35.50;23.10
4960;DHT22;2495;48.200;11.532;2022-07-17T12:29:50;34.90;23.30
4960;DHT22;2495;48.200;11.532;2022-07-17T12:34:51;34.70;23.50
4960;DHT22;2495;48.200;11.532;2022-07-17T12:39:52;35.00;23.80
4960;DHT22;2495;48.200;11.532;2022-07-17T12:44:53;34.80;23.80
4960;DHT22;2495;48.200;11.532;2022-07-17T12:49:55;34.40;23.30
4960;DHT22;2495;48.200;11.532;2022-07-17T12:54:56;33.70;24.00
4960;DHT22;2495;48.200;11.532;2022-07-17T12:59:57;33.30;23.90
4960;DHT22;2495;48.200;11.532;2022-07-17T13:04:59;33.40;24.00
4960;DHT22;2495;48.200;11.532;2022-07-17T13:10:00;33.60;23.50
4960;DHT22;2495;48.200;11.532;2022-07-17T13:15:02;33.50;23.80
4960;DHT22;2495;48.200;11.532;2022-07-17T13:20:03;33.30;24.10
4960;DHT22;2495;48.200;11.532;2022-07-17T13:25:04;33.00;23.30
4960;DHT22;2495;48.200;11.532;2022-07-17T13:30:06;32.80;23.40
4960;DHT22;2495;48.200;11.532;2022-07-17T13:35:08;32.90;23.60
4960;DHT22;2495;48.200;11.532;2022-07-17T13:40:09;33.20;23.40
4960;DHT22;2495;48.200;11.532;2022-07-17T13:45:11;33.30;23.60
4960;DHT22;2495;48.200;11.532;2022-07-17T13:50:12;33.10;23.70
4960;DHT22;2495;48.200;11.532;2022-07-17T13:55:15;33.10;23.60
4960;DHT22;2495;48.200;11.532;2022-07-17T14:00:17;32.80;24.20
4960;DHT22;2495;48.200;11.532;2022-07-17T14:05:19;32.70;24.20
4960;DHT22;2495;48.200;11.532;2022-07-17T14:10:20;32.80;24.10
4960;DHT22;2495;48.200;11.532;2022-07-17T14:15:21;32.60;24.40
4960;DHT22;2495;48.200;11.532;2022-07-17T14:20:26;32.60;24.30
4960;DHT22;2495;48.200;11.532;2022-07-17T14:25:24;32.70;24.40
4960;DHT22;2495;48.200;11.532;2022-07-17T14:30:26;32.60;24.20
4960;DHT22;2495;48.200;11.532;2022-07-17T14:35:28;32.40;24.00
4960;DHT22;2495;48.200;11.532;2022-07-17T14:40:29;32.10;24.30
4960;DHT22;2495;48.200;11.532;2022-07-17T14:45:30;32.00;24.20
4960;DHT22;2495;48.200;11.532;2022-07-17T14:50:32;31.70;24.30
4960;DHT22;2495;48.200;11.532;2022-07-17T14:55:33;31.70;24.30
4960;DHT22;2495;48.200;11.532;2022-07-17T15:00:34;31.70;24.40
4960;DHT22;2495;48.200;11.532;2022-07-17T15:05:36;31.70;24.80
4960;DHT22;2495;48.200;11.532;2022-07-17T15:10:37;31.90;24.70
4960;DHT22;2495;48.200;11.532;2022-07-17T15:15:39;31.90;24.60
4960;DHT22;2495;48.200;11.532;2022-07-17T15:20:40;31.90;24.40
4960;DHT22;2495;48.200;11.532;2022-07-17T15:25:42;32.20;24.20
4960;DHT22;2495;48.200;11.532;2022-07-17T15:30:43;32.50;23.60
4960;DHT22;2495;48.200;11.532;2022-07-17T15:35:45;32.80;23.40
4960;DHT22;2495;48.200;11.532;2022-07-17T15:40:46;33.20;23.10
4960;DHT22;2495;48.200;11.532;2022-07-17T15:45:50;33.60;23.20
4960;DHT22;2495;48.200;11.532;2022-07-17T15:50:50;33.70;22.80
4960;DHT22;2495;48.200;11.532;2022-07-17T15:55:51;33.60;22.80
4960;DHT22;2495;48.200;11.532;2022-07-17T16:00:52;33.60;22.60
4960;DHT22;2495;48.200;11.532;2022-07-17T16:05:54;33.00;22.50
4960;DHT22;2495;48.200;11.532;2022-07-17T16:10:55;32.40;22.50
4960;DHT22;2495;48.200;11.532;2022-07-17T16:15:57;31.90;23.20
4960;DHT22;2495;48.200;11.532;2022-07-17T16:20:58;31.80;23.50
4960;DHT22;2495;48.200;11.532;2022-07-17T16:25:59;31.40;24.00
4960;DHT22;2495;48.200;11.532;2022-07-17T16:31:00;31.10;24.80
4960;DHT22;2495;48.200;11.532;2022-07-17T16:36:02;30.90;25.30
4960;DHT22;2495;48.200;11.532;2022-07-17T16:41:03;30.80;25.50
4960;DHT22;2495;48.200;11.532;2022-07-17T16:46:05;30.70;25.60
4960;DHT22;2495;48.200;11.532;2022-07-17T16:51:06;30.50;25.70
4960;DHT22;2495;48.200;11.532;2022-07-17T16:56:07;30.40;26.10
4960;DHT22;2495;48.200;11.532;2022-07-17T17:01:09;30.40;26.20
4960;DHT22;2495;48.200;11.532;2022-07-17T17:06:10;30.40;26.10
4960;DHT22;2495;48.200;11.532;2022-07-17T17:11:12;30.20;26.20
4960;DHT22;2495;48.200;11.532;2022-07-17T17:16:13;30.00;26.40
4960;DHT22;2495;48.200;11.532;2022-07-17T17:21:14;29.90;26.70
4960;DHT22;2495;48.200;11.532;2022-07-17T17:26:17;29.90;26.60
4960;DHT22;2495;48.200;11.532;2022-07-17T17:31:18;29.80;26.70
4960;DHT22;2495;48.200;11.532;2022-07-17T17:36:20;29.70;27.10
4960;DHT22;2495;48.200;11.532;2022-07-17T17:41:21;29.80;27.40
4960;DHT22;2495;48.200;11.532;2022-07-17T17:46:23;29.80;27.00
4960;DHT22;2495;48.200;11.532;2022-07-17T17:51:24;29.70;27.00
4960;DHT22;2495;48.200;11.532;2022-07-17T17:56:25;29.60;27.10
4960;DHT22;2495;48.200;11.532;2022-07-17T18:01:27;29.60;27.40
4960;DHT22;2495;48.200;11.532;2022-07-17T18:06:28;29.70;27.40
4960;DHT22;2495;48.200;11.532;2022-07-17T18:11:30;29.50;27.20
4960;DHT22;2495;48.200;11.532;2022-07-17T18:16:31;29.40;27.30
4960;DHT22;2495;48.200;11.532;2022-07-17T18:21:33;29.20;27.20
4960;DHT22;2495;48.200;11.532;2022-07-17T18:26:34;29.10;27.20
4960;DHT22;2495;48.200;11.532;2022-07-17T18:31:35;29.00;27.30
4960;DHT22;2495;48.200;11.532;2022-07-17T18:36:37;28.80;27.30
4960;DHT22;2495;48.200;11.532;2022-07-17T18:41:39;28.80;27.30
4960;DHT22;2495;48.200;11.532;2022-07-17T18:46:40;28.60;27.30
4960;DHT22;2495;48.200;11.532;2022-07-17T18:51:41;28.70;27.70
4960;DHT22;2495;48.200;11.532;2022-07-17T18:56:43;28.70;27.40
4960;DHT22;2495;48.200;11.532;2022-07-17T19:01:44;28.60;27.50
4960;DHT22;2495;48.200;11.532;2022-07-17T19:06:46;28.50;27.50
4960;DHT22;2495;48.200;11.532;2022-07-17T19:11:47;28.40;27.80
4960;DHT22;2495;48.200;11.532;2022-07-17T19:16:48;28.50;28.00
4960;DHT22;2495;48.200;11.532;2022-07-17T19:21:50;28.30;28.20
4960;DHT22;2495;48.200;11.532;2022-07-17T19:26:51;28.00;28.40
4960;DHT22;2495;48.200;11.532;2022-07-17T19:31:52;27.80;28.70
4960;DHT22;2495;48.200;11.532;2022-07-17T19:36:54;27.60;29.30
4960;DHT22;2495;48.200;11.532;2022-07-17T19:41:58;27.70;29.30
4960;DHT22;2495;48.200;11.532;2022-07-17T19:46:59;27.50;29.90
4960;DHT22;2495;48.200;11.532;2022-07-17T19:52:01;27.30;30.30
4960;DHT22;2495;48.200;11.532;2022-07-17T19:57:02;27.20;30.80
4960;DHT22;2495;48.200;11.532;2022-07-17T20:02:03;27.00;31.20
4960;DHT22;2495;48.200;11.532;2022-07-17T20:07:05;26.90;31.80
4960;DHT22;2495;48.200;11.532;2022-07-17T20:12:06;26.80;32.30
4960;DHT22;2495;48.200;11.532;2022-07-17T20:17:08;26.70;32.50
4960;DHT22;2495;48.200;11.532;2022-07-17T20:22:09;26.60;32.80
4960;DHT22;2495;48.200;11.532;2022-07-17T20:27:10;26.50;33.00
4960;DHT22;2495;48.200;11.532;2022-07-17T20:32:11;26.40;33.30
4960;DHT22;2495;48.200;11.532;2022-07-17T20:37:13;26.30;33.60
4960;DHT22;2495;48.200;11.532;2022-07-17T20:42:14;26.20;34.10
4960;DHT22;2495;48.200;11.532;2022-07-17T20:47:15;26.10;34.30
4960;DHT22;2495;48.200;11.532;2022-07-17T20:52:17;26.00;34.70
4960;DHT22;2495;48.200;11.532;2022-07-17T20:57:18;25.90;35.60
4960;DHT22;2495;48.200;11.532;2022-07-17T21:02:19;25.80;35.40
4960;DHT22;2495;48.200;11.532;2022-07-17T21:07:21;25.80;36.30
4960;DHT22;2495;48.200;11.532;2022-07-17T21:12:22;25.90;36.30
4960;DHT22;2495;48.200;11.532;2022-07-17T21:17:23;25.80;36.60
4960;DHT22;2495;48.200;11.532;2022-07-17T21:22:25;25.60;37.00
4960;DHT22;2495;48.200;11.532;2022-07-17T21:27:26;25.50;37.30
4960;DHT22;2495;48.200;11.532;2022-07-17T21:32:27;25.50;37.90
4960;DHT22;2495;48.200;11.532;2022-07-17T21:37:29;25.60;38.10
4960;DHT22;2495;48.200;11.532;2022-07-17T21:42:30;25.60;37.70
4960;DHT22;2495;48.200;11.532;2022-07-17T21:47:32;25.40;37.60
4960;DHT22;2495;48.200;11.532;2022-07-17T21:52:34;25.20;37.90
4960;DHT22;2495;48.200;11.532;2022-07-17T21:57:35;25.10;38.10
4960;DHT22;2495;48.200;11.532;2022-07-17T22:02:37;25.00;38.90
4960;DHT22;2495;48.200;11.532;2022-07-17T22:07:39;25.10;38.70
4960;DHT22;2495;48.200;11.532;2022-07-17T22:12:40;25.00;38.70
4960;DHT22;2495;48.200;11.532;2022-07-17T22:17:42;24.80;39.10
4960;DHT22;2495;48.200;11.532;2022-07-17T22:22:43;24.70;39.30
4960;DHT22;2495;48.200;11.532;2022-07-17T22:27:45;24.60;39.40
4960;DHT22;2495;48.200;11.532;2022-07-17T22:32:46;24.50;39.60
4960;DHT22;2495;48.200;11.532;2022-07-17T22:37:47;24.40;39.80
4960;DHT22;2495;48.200;11.532;2022-07-17T22:42:49;24.30;40.00
4960;DHT22;2495;48.200;11.532;2022-07-17T22:47:50;24.30;40.70
4960;DHT22;2495;48.200;11.532;2022-07-17T22:52:51;24.30;40.80
4960;DHT22;2495;48.200;11.532;2022-07-17T22:57:53;24.40;40.40
4960;DHT22;2495;48.200;11.532;2022-07-17T23:02:54;24.30;40.40
4960;DHT22;2495;48.200;11.532;2022-07-17T23:07:56;24.20;40.70
4960;DHT22;2495;48.200;11.532;2022-07-17T23:12:57;24.10;41.00
4960;DHT22;2495;48.200;11.532;2022-07-17T23:17:58;23.90;41.70
4960;DHT22;2495;48.200;11.532;2022-07-17T23:23:00;23.80;41.20
4960;DHT22;2495;48.200;11.532;2022-07-17T23:28:01;23.70;41.50
4960;DHT22;2495;48.200;11.532;2022-07-17T23:33:03;23.60;41.90
4960;DHT22;2495;48.200;11.532;2022-07-17T23:38:04;23.40;42.20
4960;DHT22;2495;48.200;11.532;2022-07-17T23:43:05;23.30;42.60
4960;DHT22;2495;48.200;11.532;2022-07-17T23:48:07;23.20;42.90
4960;DHT22;2495;48.200;11.532;2022-07-17T23:53:08;23.10;43.30
4960;DHT22;2495;48.200;11.532;2022-07-17T23:58:10;23.30;43.50
